Time;durP1;ratioP1;P1;durP2;ratioP2;P2;SDS_P1;SDS_P2;PMS_P1;PMS_P2;Temp;Humidity;BMP_temperature;BMP_pressure;BME280_temperature;BME280_humidity;BME280_pressure;Samples;Min_cycle;Max_cycle;Signal;HPM_P1;HPM_P2
2023/12/30 14:57:40;;;;;;;6.38;5.65;;;;;;;;;;6158232;23;20055;-84
2023/12/30 15:00:11;;;;;;;8.20;6.13;;;;;;;;;;6186584;23;20059;-85
2023/12/30 15:02:37;;;;;;;10.70;6.68;;;;;;;;;;6185681;23;20084;-83
2023/12/30 15:05:03;;;;;;;7.22;5.30;;;;;;;;;;6187015;23;20133;-91
2023/12/30 15:07:28;;;;;;;7.80;5.68;;;;;;;;;;6186434;23;20005;-83
2023/12/30 15:09:54;;;;;;;7.13;5.50;;;;;;;;;;6186723;23;20009;-93
2023/12/30 15:12:22;;;;;;;7.57;5.88;;;;;;;;;;6188212;23;20028;-93
2023/12/30 15:14:50;;;;;;;8.43;5.72;;;;;;;;;;6186104;23;20384;-85
2023/12/30 15:17:17;;;;;;;7.85;6.13;;;;;;;;;;6184975;23;20012;-85
2023/12/30 15:19:43;;;;;;;8.52;6.82;;;;;;;;;;6186933;23;20020;-85
2023/12/30 15:22:08;;;;;;;10.85;7.85;;;;;;;;;;6186699;23;20385;-86
2023/12/30 15:24:34;;;;;;;10.82;8.05;;;;;;;;;;6185232;23;20013;-85
2023/12/30 15:27:00;;;;;;;11.95;8.43;;;;;;;;;;6186352;23;20001;-85
2023/12/30 15:29:25;;;;;;;9.32;8.27;;;;;;;;;;6184969;23;20005;-84
2023/12/30 15:31:51;;;;;;;9.43;7.82;;;;;;;;;;6186423;23;20005;-85
2023/12/30 15:34:17;;;;;;;8.90;7.82;;;;;;;;;;6186893;23;20380;-85
2023/12/30 15:36:42;;;;;;;8.50;6.90;;;;;;;;;;6186801;23;20009;-85
2023/12/30 15:39:08;;;;;;;9.63;7.72;;;;;;;;;;6186956;23;20436;-85
2023/12/30 15:41:33;;;;;;;9.57;7.57;;;;;;;;;;6185178;23;20443;-85
2023/12/30 15:43:59;;;;;;;12.73;6.95;;;;;;;;;;6188743;23;20001;-84
2023/12/30 15:46:25;;;;;;;13.23;7.88;;;;;;;;;;6186581;23;20009;-85
2023/12/30 15:48:50;;;;;;;19.27;11.00;;;;;;;;;;6188726;23;20012;-85
2023/12/30 15:51:16;;;;;;;16.48;10.00;;;;;;;;;;6186511;23;20429;-85
2023/12/30 15:53:41;;;;;;;17.38;9.38;;;;;;;;;;6187421;23;20008;-88
2023/12/30 15:56:07;;;;;;;15.35;9.10;;;;;;;;;;6187300;23;20005;-92
2023/12/30 15:58:33;;;;;;;11.88;8.35;;;;;;;;;;6185299;23;20020;-88
2023/12/30 16:00:59;;;;;;;10.90;7.28;;;;;;;;;;6186644;23;20009;-86
2023/12/30 16:03:24;;;;;;;10.52;7.82;;;;;;;;;;6185684;23;20081;-91
2023/12/30 16:05:50;;;;;;;14.27;9.45;;;;;;;;;;6186810;23;20076;-90
2023/12/30 16:08:18;;;;;;;10.23;7.65;;;;;;;;;;6185157;23;20012;-91
2023/12/30 16:10:48;;;;;;;14.23;8.57;;;;;;;;;;6186562;23;20005;-93
2023/12/30 16:13:15;;;;;;;11.48;7.78;;;;;;;;;;6184716;23;20012;-85
2023/12/30 16:15:43;;;;;;;11.63;8.27;;;;;;;;;;6186276;23;20025;-86
2023/12/30 16:18:14;;;;;;;9.15;6.75;;;;;;;;;;6186764;23;20008;-84
2023/12/30 16:20:39;;;;;;;9.27;7.28;;;;;;;;;;6188392;23;20115;-86
2023/12/30 16:23:07;;;;;;;12.32;8.55;;;;;;;;;;6188837;23;20001;-83
2023/12/30 16:25:32;;;;;;;12.40;8.15;;;;;;;;;;6186918;23;20083;-85
2023/12/30 16:27:58;;;;;;;12.63;8.77;;;;;;;;;;6188330;23;20031;-84
2023/12/30 16:30:23;;;;;;;15.05;10.48;;;;;;;;;;6189438;23;20377;-84
2023/12/30 16:32:49;;;;;;;13.77;10.30;;;;;;;;;;6189135;23;20432;-84
2023/12/30 16:35:15;;;;;;;18.15;11.45;;;;;;;;;;6188747;23;20127;-87
2023/12/30 16:37:40;;;;;;;17.48;11.20;;;;;;;;;;6188344;23;20001;-84
2023/12/30 16:40:07;;;;;;;15.45;10.85;;;;;;;;;;6188626;23;20005;-85
2023/12/30 16:42:33;;;;;;;16.95;11.75;;;;;;;;;;6188689;23;20436;-84
2023/12/30 16:44:59;;;;;;;15.65;10.80;;;;;;;;;;6188590;23;20002;-85
2023/12/30 16:47:24;;;;;;;13.13;9.38;;;;;;;;;;6186548;23;20096;-84
2023/12/30 16:49:50;;;;;;;14.32;9.75;;;;;;;;;;6188364;23;20012;-85
2023/12/30 16:52:16;;;;;;;16.50;9.80;;;;;;;;;;6188506;23;20001;-86
2023/12/30 16:54:41;;;;;;;13.65;9.88;;;;;;;;;;6188480;23;20012;-85
2023/12/30 16:57:07;;;;;;;14.65;10.45;;;;;;;;;;6187975;23;20327;-86
2023/12/30 16:59:32;;;;;;;10.48;8.32;;;;;;;;;;6188609;23;20440;-86
2023/12/30 17:01:59;;;;;;;11.38;8.35;;;;;;;;;;6187812;23;20056;-84
2023/12/30 17:04:25;;;;;;;13.70;8.57;;;;;;;;;;6186176;23;20012;-84
2023/12/30 17:06:51;;;;;;;12.68;9.45;;;;;;;;;;6188217;23;20001;-85
2023/12/30 17:09:17;;;;;;;12.55;8.57;;;;;;;;;;6187794;23;20323;-84
2023/12/30 17:11:42;;;;;;;12.63;9.25;;;;;;;;;;6187948;23;20024;-86
2023/12/30 17:14:13;;;;;;;14.18;9.55;;;;;;;;;;6187867;23;20001;-84
2023/12/30 17:16:39;;;;;;;12.95;9.02;;;;;;;;;;6187444;23;20051;-83
2023/12/30 17:19:05;;;;;;;14.20;10.20;;;;;;;;;;6187837;23;20366;-83
2023/12/30 17:21:31;;;;;;;15.07;9.73;;;;;;;;;;6186626;23;20009;-89
2023/12/30 17:23:57;;;;;;;12.38;9.63;;;;;;;;;;6187722;23;20428;-85
2023/12/30 17:26:22;;;;;;;16.40;10.50;;;;;;;;;;6186302;23;20008;-83
2023/12/30 17:28:48;;;;;;;12.85;9.23;;;;;;;;;;6185947;23;20012;-84
2023/12/30 17:31:13;;;;;;;16.60;9.07;;;;;;;;;;6188692;23;20012;-90
2023/12/30 17:33:39;;;;;;;11.75;9.05;;;;;;;;;;6190242;23;20005;-83
2023/12/30 17:36:05;;;;;;;13.73;9.70;;;;;;;;;;6187416;23;20001;-82
2023/12/30 17:38:30;;;;;;;11.38;8.68;;;;;;;;;;6187088;23;20012;-91
2023/12/30 17:40:56;;;;;;;12.18;9.35;;;;;;;;;;6187003;23;20063;-84
2023/12/30 17:43:21;;;;;;;12.45;9.20;;;;;;;;;;6186969;23;20008;-84
2023/12/30 17:45:49;;;;;;;11.30;8.57;;;;;;;;;;6186808;23;20009;-82
2023/12/30 17:48:15;;;;;;;9.05;7.38;;;;;;;;;;6187013;23;20012;-88
2023/12/30 17:50:42;;;;;;;10.18;7.57;;;;;;;;;;6185467;23;20044;-89
2023/12/30 17:53:10;;;;;;;11.52;7.57;;;;;;;;;;6187568;23;20075;-87
2023/12/30 17:55:36;;;;;;;11.23;7.82;;;;;;;;;;6187210;23;20076;-84
2023/12/30 17:58:01;;;;;;;12.52;8.73;;;;;;;;;;6187016;23;20009;-84
2023/12/30 18:00:27;;;;;;;11.57;9.00;;;;;;;;;;6187362;23;20080;-83
2023/12/30 18:02:52;;;;;;;14.95;10.40;;;;;;;;;;6187333;23;20001;-83
2023/12/30 18:05:18;;;;;;;17.33;11.15;;;;;;;;;;6186003;23;20005;-83
2023/12/30 18:07:43;;;;;;;14.07;10.90;;;;;;;;;;6187167;23;20093;-83
2023/12/30 18:10:09;;;;;;;17.00;11.38;;;;;;;;;;6186721;23;20012;-85
2023/12/30 18:12:36;;;;;;;16.95;10.45;;;;;;;;;;6187827;23;20001;-84
2023/12/30 18:15:03;;;;;;;16.10;9.73;;;;;;;;;;6188258;23;20005;-88
2023/12/30 18:17:30;;;;;;;14.10;10.00;;;;;;;;;;6187628;23;20001;-85
2023/12/30 18:19:56;;;;;;;16.08;9.85;;;;;;;;;;6187510;23;20424;-84
2023/12/30 18:22:21;;;;;;;19.23;12.35;;;;;;;;;;6187159;23;20001;-84
2023/12/30 18:24:47;;;;;;;18.95;11.18;;;;;;;;;;6187308;23;20005;-84
2023/12/30 18:27:12;;;;;;;15.98;11.52;;;;;;;;;;6188235;23;20060;-85
2023/12/30 18:29:38;;;;;;;14.73;11.15;;;;;;;;;;6187529;23;20080;-84
2023/12/30 18:32:06;;;;;;;18.58;11.73;;;;;;;;;;6187637;23;20348;-83
2023/12/30 18:34:34;;;;;;;17.98;11.48;;;;;;;;;;6187134;23;20068;-84
2023/12/30 18:37:00;;;;;;;13.88;10.43;;;;;;;;;;6186678;23;20077;-86
2023/12/30 18:39:29;;;;;;;15.90;10.48;;;;;;;;;;6187296;23;20020;-84
2023/12/30 18:41:57;;;;;;;18.33;10.73;;;;;;;;;;6187348;23;20001;-87
2023/12/30 18:44:25;;;;;;;14.48;9.90;;;;;;;;;;6186777;23;20036;-84
2023/12/30 18:46:51;;;;;;;18.13;11.57;;;;;;;;;;6187238;23;20336;-84
2023/12/30 18:49:21;;;;;;;16.30;11.20;;;;;;;;;;6187350;23;20494;-84
2023/12/30 18:51:46;;;;;;;15.55;11.02;;;;;;;;;;6185649;23;20005;-84
2023/12/30 18:54:11;;;;;;;12.85;9.18;;;;;;;;;;6186526;23;20005;-85
2023/12/30 18:56:39;;;;;;;14.68;10.13;;;;;;;;;;6186582;23;20005;-84
2023/12/30 18:59:16;;;;;;;18.20;12.35;;;;;;;;;;6186602;23;20024;-84
2023/12/30 19:01:44;;;;;;;17.13;10.25;;;;;;;;;;6186277;23;20009;-84
2023/12/30 19:04:10;;;;;;;16.30;11.38;;;;;;;;;;6185766;23;20088;-84
2023/12/30 19:06:35;;;;;;;14.80;9.77;;;;;;;;;;6186265;23;20020;-84
2023/12/30 19:09:07;;;;;;;36.17;19.63;;;;;;;;;;6186692;23;20001;-84
2023/12/30 19:11:40;;;;;;;31.17;17.20;;;;;;;;;;6186180;23;20336;-84
2023/12/30 19:14:05;;;;;;;23.15;14.90;;;;;;;;;;6186491;23;20064;-84
2023/12/30 19:16:33;;;;;;;23.08;13.20;;;;;;;;;;6184822;23;20013;-84
2023/12/30 19:19:01;;;;;;;22.02;14.32;;;;;;;;;;6186562;23;20005;-84
2023/12/30 19:21:27;;;;;;;30.05;16.95;;;;;;;;;;6186382;23;20016;-84
2023/12/30 19:23:52;;;;;;;56.17;26.77;;;;;;;;;;6184892;23;20112;-83
2023/12/30 19:26:18;;;;;;;143.63;60.03;;;;;;;;;;6186322;23;20088;-84
2023/12/30 19:28:43;;;;;;;56.90;29.30;;;;;;;;;;6186239;23;20005;-85
2023/12/30 19:31:12;;;;;;;63.20;30.88;;;;;;;;;;6186248;23;20332;-85
2023/12/30 19:33:39;;;;;;;56.13;28.23;;;;;;;;;;6186597;23;20086;-85
2023/12/30 19:36:05;;;;;;;42.13;23.08;;;;;;;;;;6185155;23;20439;-86
2023/12/30 19:38:30;;;;;;;45.15;25.65;;;;;;;;;;6187133;23;20080;-87
2023/12/30 19:40:56;;;;;;;35.88;20.48;;;;;;;;;;6185698;23;20063;-90
2023/12/30 19:43:22;;;;;;;30.05;18.75;;;;;;;;;;6186691;23;20005;-86
2023/12/30 19:45:47;;;;;;;29.42;19.63;;;;;;;;;;6186494;23;20016;-86
2023/12/30 19:48:13;;;;;;;33.38;19.60;;;;;;;;;;6186049;23;20043;-85
2023/12/30 19:50:42;;;;;;;32.72;21.80;;;;;;;;;;6186224;23;20443;-87
2023/12/30 19:53:12;;;;;;;33.45;21.92;;;;;;;;;;6186287;23;20006;-87
2023/12/30 19:55:38;;;;;;;27.98;19.50;;;;;;;;;;6186062;23;20452;-86
2023/12/30 19:58:03;;;;;;;29.77;18.67;;;;;;;;;;6186067;23;20017;-88
2023/12/30 20:00:29;;;;;;;27.30;19.15;;;;;;;;;;6184381;23;20008;-87
2023/12/30 20:02:54;;;;;;;29.63;19.30;;;;;;;;;;6186032;23;20001;-86
2023/12/30 20:05:22;;;;;;;26.38;18.08;;;;;;;;;;6185916;23;20009;-91
2023/12/30 20:07:47;;;;;;;33.67;20.45;;;;;;;;;;6185780;23;20005;-85
2023/12/30 20:10:15;;;;;;;29.92;18.33;;;;;;;;;;6184171;23;20013;-84
2023/12/30 20:12:43;;;;;;;28.83;18.63;;;;;;;;;;6185917;23;20008;-84
2023/12/30 20:15:11;;;;;;;27.55;17.83;;;;;;;;;;6185518;23;20009;-84
2023/12/30 20:17:36;;;;;;;25.92;18.08;;;;;;;;;;6185701;23;20035;-85
2023/12/30 20:20:05;;;;;;;31.20;19.58;;;;;;;;;;6184170;23;20005;-85
2023/12/30 20:22:32;;;;;;;26.00;18.53;;;;;;;;;;6185908;23;20001;-86
2023/12/30 20:25:01;;;;;;;28.45;18.45;;;;;;;;;;6185684;23;20360;-85
2023/12/30 20:27:27;;;;;;;25.63;17.00;;;;;;;;;;6185711;23;20483;-85
2023/12/30 20:29:52;;;;;;;29.67;18.58;;;;;;;;;;6185249;23;20001;-85
2023/12/30 20:32:18;;;;;;;31.88;19.70;;;;;;;;;;6185719;23;20372;-85
2023/12/30 20:34:45;;;;;;;31.48;19.10;;;;;;;;;;6186267;23;20412;-84
2023/12/30 20:37:11;;;;;;;28.88;18.10;;;;;;;;;;6185888;23;20001;-84
2023/12/30 20:39:37;;;;;;;28.25;18.67;;;;;;;;;;6186036;23;20051;-85
2023/12/30 20:42:03;;;;;;;26.88;18.60;;;;;;;;;;6185852;23;20345;-84
2023/12/30 20:44:28;;;;;;;40.47;25.33;;;;;;;;;;6186098;23;20169;-85
2023/12/30 20:46:54;;;;;;;47.42;27.88;;;;;;;;;;6185889;23;20033;-85
2023/12/30 20:49:20;;;;;;;36.15;22.17;;;;;;;;;;6187031;23;20443;-86
2023/12/30 20:51:49;;;;;;;29.75;19.45;;;;;;;;;;6184853;23;20016;-84
2023/12/30 20:54:16;;;;;;;29.90;18.85;;;;;;;;;;6186838;23;20001;-84
2023/12/30 20:56:41;;;;;;;28.10;19.08;;;;;;;;;;6186190;23;20444;-84
2023/12/30 20:59:07;;;;;;;31.95;21.20;;;;;;;;;;6186591;23;20017;-84
2023/12/30 21:01:32;;;;;;;110.47;59.63;;;;;;;;;;6185977;23;20064;-86
2023/12/30 21:03:58;;;;;;;57.30;32.33;;;;;;;;;;6184581;23;20009;-85
2023/12/30 21:06:23;;;;;;;34.80;23.27;;;;;;;;;;6187665;23;20012;-85
2023/12/30 21:08:49;;;;;;;31.25;21.20;;;;;;;;;;6187582;23;20008;-86
2023/12/30 21:11:14;;;;;;;29.83;20.10;;;;;;;;;;6186036;23;20092;-84
2023/12/30 21:13:42;;;;;;;31.98;19.60;;;;;;;;;;6186179;23;20009;-83
2023/12/30 21:16:08;;;;;;;31.48;21.17;;;;;;;;;;6187765;23;20031;-84
2023/12/30 21:18:34;;;;;;;29.10;19.73;;;;;;;;;;6187851;23;20001;-83
2023/12/30 21:21:02;;;;;;;33.25;21.88;;;;;;;;;;6186186;23;20021;-84
2023/12/30 21:23:27;;;;;;;30.20;19.67;;;;;;;;;;6185810;23;20020;-84
2023/12/30 21:25:54;;;;;;;30.40;19.60;;;;;;;;;;6187342;23;20001;-85
2023/12/30 21:28:19;;;;;;;28.45;20.02;;;;;;;;;;6185429;23;20348;-85
2023/12/30 21:30:45;;;;;;;30.38;20.58;;;;;;;;;;6187811;23;20005;-85
2023/12/30 21:33:10;;;;;;;32.40;19.65;;;;;;;;;;6187472;23;20421;-85
2023/12/30 21:35:35;;;;;;;30.00;19.92;;;;;;;;;;6187113;23;20012;-84
2023/12/30 21:38:01;;;;;;;28.17;19.17;;;;;;;;;;6187290;23;20080;-85
2023/12/30 21:40:29;;;;;;;27.58;19.05;;;;;;;;;;6187051;23;20091;-86
2023/12/30 21:42:55;;;;;;;24.80;17.05;;;;;;;;;;6187592;23;20013;-86
2023/12/30 21:45:20;;;;;;;27.27;16.88;;;;;;;;;;6191314;23;20059;-85
2023/12/30 21:47:46;;;;;;;27.15;17.83;;;;;;;;;;6192963;23;20083;-85
2023/12/30 21:50:12;;;;;;;25.95;17.95;;;;;;;;;;6191595;23;20029;-85
2023/12/30 21:52:37;;;;;;;24.40;17.48;;;;;;;;;;6187133;23;20001;-85
2023/12/30 21:55:04;;;;;;;29.27;17.60;;;;;;;;;;6186246;23;20011;-85
2023/12/30 21:57:30;;;;;;;26.88;18.45;;;;;;;;;;6186651;23;20028;-87
2023/12/30 21:59:55;;;;;;;26.73;18.15;;;;;;;;;;6187070;23;20055;-86
2023/12/30 22:02:20;;;;;;;26.38;18.05;;;;;;;;;;6185288;23;20009;-85
2023/12/30 22:04:46;;;;;;;27.85;18.55;;;;;;;;;;6186956;23;20417;-88
2023/12/30 22:07:11;;;;;;;26.23;16.45;;;;;;;;;;6186904;23;20306;-84
2023/12/30 22:09:37;;;;;;;26.58;17.30;;;;;;;;;;6186766;23;20012;-85
2023/12/30 22:12:02;;;;;;;29.17;18.20;;;;;;;;;;6186873;23;20005;-85
2023/12/30 22:14:28;;;;;;;26.63;17.45;;;;;;;;;;6186837;23;20005;-86
2023/12/30 22:16:53;;;;;;;26.77;18.15;;;;;;;;;;6186518;23;20005;-85
2023/12/30 22:19:19;;;;;;;25.98;17.33;;;;;;;;;;6185258;23;20008;-85
2023/12/30 22:21:44;;;;;;;25.33;17.58;;;;;;;;;;6186706;23;20054;-85
2023/12/30 22:24:10;;;;;;;27.90;18.95;;;;;;;;;;6186699;23;20001;-84
2023/12/30 22:26:35;;;;;;;26.20;18.13;;;;;;;;;;6186607;23;20001;-85
2023/12/30 22:29:00;;;;;;;26.25;18.58;;;;;;;;;;6186864;23;20001;-86
2023/12/30 22:31:26;;;;;;;30.92;20.20;;;;;;;;;;6186290;23;20088;-87
2023/12/30 22:33:51;;;;;;;26.48;17.67;;;;;;;;;;6186866;23;20494;-87
2023/12/30 22:36:26;;;;;;;27.00;18.27;;;;;;;;;;6185337;23;20009;-88
2023/12/30 22:38:51;;;;;;;27.25;17.63;;;;;;;;;;6186415;23;20012;-85
2023/12/30 22:41:17;;;;;;;26.00;17.45;;;;;;;;;;6186479;23;20005;-88
2023/12/30 22:43:42;;;;;;;29.83;18.75;;;;;;;;;;6185145;23;20047;-86
2023/12/30 22:46:07;;;;;;;30.85;19.63;;;;;;;;;;6160245;23;20016;-86
2023/12/30 22:48:33;;;;;;;28.30;18.45;;;;;;;;;;6187114;23;20450;-85
2023/12/30 22:50:58;;;;;;;26.75;18.10;;;;;;;;;;6186705;23;20009;-86
2023/12/30 22:53:24;;;;;;;26.92;17.90;;;;;;;;;;6186467;23;20005;-86
2023/12/30 22:55:49;;;;;;;27.00;17.42;;;;;;;;;;6186290;23;20309;-84
2023/12/30 22:58:15;;;;;;;26.95;17.75;;;;;;;;;;6186319;23;20016;-88
